Main page
METAR-TAF:

METAR-TAF

Airports :

Malmö Airport

Malmö, Sweden

latitude: 55-33N, longitude: 013-22E, elevation: 106 m

Current weather observation

The report was made 38 minutes ago, at 04:20 UTC
Wind 10 kt from the West
Temperature 15°C
Humidity 82%
Pressure 1019 hPa
Visibility 10 km or more
Broken clouds at a height of 1400 ft

METAR: ESMS 180420Z 28010KT 9999 BKN014 15/12 Q1019

Time: 06:58 (04:58 UTC)

Forecast

The report was made 2 hours and 56 minutes ago, at 02:02 UTC
Forecast valid from 18 at 03 UTC to 19 at 03 UTC
Wind 10 kt from the West
Visibility 10 km or more
Scattered clouds at a height of 2000 ft
Temporary
from 18 at 03 UTC to 18 at 06 UTC
Broken clouds at a height of 1300 ft

TAF: ESMS 180202Z 1803/1903 27010KT 9999 SCT020 TEMPO 1803/1806 BKN013

Weather observations and forecasts of more than 4000 airports (METAR and TAF reports).

The available stations are represented by yellow and red dots on the map.

Hover mouse over dot to see the name of the station.

Then click to see weather observations and forecasts.

To change the map : click on the green buttons with a black cross to zoom in, on the green button with a dash to zoom out, or on the green arrows for adjacent maps.


METAR-TAF: